Stena Atlantica — ZCPR7 — position and weather

sailwx.info

Track history (hours):
 
Tides and Currents Weather Stations Pressure Air Temp Water Temp Dewpoint Dewpoint Depression Visibility Wind Speed Wind Dir Waves Ship Positions

Stena Atlantica

Last reported at 2014-Oct-29 07:17 UTC. Time now 2014-Oct-31 07:51 UTC.
Position N 60°09' E 027°41'.

Length 245 m; draft 8 m.

Type: Tanker. MMSI: 319161000.

Date/timePositionNaut miles runAvg speedWind from/ knotsBaromVisibWave heightAir tempDewpointWater temp
2014-Oct-29 07:17N 60°09' E 027°41'912.5
2014-Oct-29 06:34N 60°04' E 027°25'1312.6
2014-Oct-29 05:33N 59°58' E 027°03'1212.4
2014-Oct-29 04:33N 59°59' E 026°38'1312.6
2014-Oct-29 03:34N 59°56' E 026°14'1312.6
2014-Oct-29 02:33N 59°53' E 025°50'1312.9
2014-Oct-29 01:33N 59°50' E 025°24'1312.6
2014-Oct-29 00:33N 59°47' E 024°60'1212.5
2014-Oct-28 23:34N 59°45' E 024°36'1212.4
2014-Oct-28 22:34N 59°41' E 024°12'1312.6
2014-Oct-28 21:34N 59°37' E 023°48'1312.9
2014-Oct-28 20:34N 59°34' E 023°24'1312.7
2014-Oct-28 19:30N 59°29' E 022°59'28412.1
2014-Oct-27 20:05N 55°12' E 019°17'1013.0
2014-Oct-27 19:18N 55°01' E 019°13'912.9
2014-Oct-27 18:33N 54°52' E 019°10'1312.8
2014-Oct-27 17:33N 54°40' E 019°06'1212.3
2014-Oct-27 16:33N 54°28' E 019°00'10 9.6
2014-Oct-27 15:33N 54°24' E 018°45'1 1.0
2014-Oct-27 14:31N 54°24' E 018°43'0 0.0
2014-Oct-27 13:34N 54°24' E 018°43'0 0.0
2014-Oct-27 12:31N 54°24' E 018°43'0 0.0
2014-Oct-27 11:34N 54°24' E 018°43'0 0.0
2014-Oct-27 10:34N 54°24' E 018°43'0 0.0
2014-Oct-27 09:31N 54°24' E 018°43'0 0.0
2014-Oct-27 08:34N 54°24' E 018°43'0 0.0
2014-Oct-27 07:31N 54°24' E 018°43'0 0.0
2014-Oct-27 06:28N 54°24' E 018°43'0 0.0
2014-Oct-27 05:31N 54°24' E 018°43'0 0.0
2014-Oct-27 04:31N 54°24' E 018°43'0 0.0
2014-Oct-27 03:31N 54°24' E 018°43'0 0.0
2014-Oct-27 02:34N 54°24' E 018°43'0 0.0
2014-Oct-27 01:31N 54°24' E 018°43'0 0.0
2014-Oct-27 00:31N 54°24' E 018°43'0 0.0
2014-Oct-26 23:31N 54°24' E 018°43'0 0.0
2014-Oct-26 22:31N 54°24' E 018°43'0 0.0
2014-Oct-26 21:31N 54°24' E 018°43'0 0.0
2014-Oct-26 20:34N 54°24' E 018°43'0 0.0
2014-Oct-26 19:31N 54°24' E 018°43'0 0.0
2014-Oct-26 18:31N 54°24' E 018°43'0 0.0
2014-Oct-26 17:31N 54°24' E 018°43'0 0.0
2014-Oct-26 16:31N 54°24' E 018°43'0 0.0
2014-Oct-26 15:33N 54°24' E 018°43'0 0.0
2014-Oct-26 14:33N 54°24' E 018°43'0 0.0
2014-Oct-26 13:33N 54°24' E 018°43'0 0.0
2014-Oct-26 12:33N 54°24' E 018°43'0 0.0
2014-Oct-26 11:33N 54°24' E 018°43'1 1.3
2014-Oct-26 10:33N 54°24' E 018°45'7 7.3
2014-Oct-26 09:33N 54°28' E 018°56'10 9.8
2014-Oct-26 08:33N 54°36' E 019°04'1010.1
2014-Oct-26 07:33N 54°46' E 019°05'1211.9
2014-Oct-26 06:33N 54°58' E 019°10'1211.7
2014-Oct-26 05:33N 55°10' E 019°13'1712.1
2014-Oct-26 04:11N 55°26' E 019°20'812.3
2014-Oct-26 03:33N 55°34' E 019°23'1212.2
2014-Oct-26 02:33N 55°45' E 019°27'1212.3
2014-Oct-26 01:33N 55°57' E 019°32'1312.3
2014-Oct-26 00:32N 56°10' E 019°37'24210.5
2014-Oct-25 01:33N 59°38' E 023°27'1212.0
2014-Oct-25 00:34N 59°42' E 023°49'1311.9
2014-Oct-24 23:27N 59°45' E 024°14'1111.9
2014-Oct-24 22:33N 59°49' E 024°35'5112.0
2014-Oct-24 18:18N 59°59' E 026°15'912.0
2014-Oct-24 17:33N 60°01' E 026°32'1312.0
2014-Oct-24 16:30N 59°60' E 026°57'  
2014-Oct-21 20:21N 60°01' E 027°15'1111.0
2014-Oct-21 19:23N 59°58' E 026°55'1011.5
2014-Oct-21 18:33N 59°59' E 026°35'1211.6
2014-Oct-21 17:31N 59°56' E 026°12'3911.5
2014-Oct-21 14:11N 59°47' E 024°57'711.4
2014-Oct-21 13:33N 59°45' E 024°44'1611.4
2014-Oct-21 12:08N 59°41' E 024°12'611.2
2014-Oct-21 11:33N 59°39' E 024°00'1211.5
2014-Oct-21 10:33N 59°36' E 023°39'1211.7
2014-Oct-21 09:33N 59°33' E 023°16'30112.0
2014-Oct-20 08:28N 55°59' E 016°37'1212.7
2014-Oct-20 07:34N 55°53' E 016°19'1512.7
2014-Oct-20 06:24N 55°45' E 015°57'1612.7
2014-Oct-20 05:11N 55°37' E 015°34'812.7
2014-Oct-20 04:32N 55°32' E 015°22'1212.7
2014-Oct-20 03:34N 55°25' E 015°04'1111.5
2014-Oct-20 02:34N 55°18' E 014°49'1212.0
2014-Oct-20 01:33N 55°12' E 014°31'1313.0
2014-Oct-20 00:33N 55°04' E 014°13'1313.0
2014-Oct-19 23:33N 54°58' E 013°53'1313.2
2014-Oct-19 22:33N 54°54' E 013°31'2712.9
2014-Oct-19 20:30N 54°45' E 012°48'3233.8
2014-Oct-19 19:32N 54°25' E 012°03'7 6.1
2014-Oct-19 18:26N 54°28' E 012°13'1011.6
2014-Oct-19 17:33N 54°25' E 011°57'4112.7
2014-Oct-19 14:17N 54°42' E 010°52'  
Track history (hours):
 
Tides and Currents Weather Stations Pressure Air Temp Water Temp Dewpoint Dewpoint Depression Visibility Wind Speed Wind Dir Waves Ship Positions

Stena Atlantica

Last reported at 2014-Oct-29 07:17 UTC. Time now 2014-Oct-31 07:51 UTC.
Position N 60°09' E 027°41'.

Length 245 m; draft 8 m.

Type: Tanker. MMSI: 319161000.

Date/timePositionNaut miles runAvg speedWind from/ knotsBaromVisibWave heightAir tempDewpointWater temp
2014-Oct-29 07:17N 60°09' E 027°41'912.5
2014-Oct-29 06:34N 60°04' E 027°25'1312.6
2014-Oct-29 05:33N 59°58' E 027°03'1212.4
2014-Oct-29 04:33N 59°59' E 026°38'1312.6
2014-Oct-29 03:34N 59°56' E 026°14'1312.6
2014-Oct-29 02:33N 59°53' E 025°50'1312.9
2014-Oct-29 01:33N 59°50' E 025°24'1312.6
2014-Oct-29 00:33N 59°47' E 024°60'1212.5
2014-Oct-28 23:34N 59°45' E 024°36'1212.4
2014-Oct-28 22:34N 59°41' E 024°12'1312.6
2014-Oct-28 21:34N 59°37' E 023°48'1312.9
2014-Oct-28 20:34N 59°34' E 023°24'1312.7
2014-Oct-28 19:30N 59°29' E 022°59'28412.1
2014-Oct-27 20:05N 55°12' E 019°17'1013.0
2014-Oct-27 19:18N 55°01' E 019°13'912.9
2014-Oct-27 18:33N 54°52' E 019°10'1312.8
2014-Oct-27 17:33N 54°40' E 019°06'1212.3
2014-Oct-27 16:33N 54°28' E 019°00'10 9.6
2014-Oct-27 15:33N 54°24' E 018°45'1 1.0
2014-Oct-27 14:31N 54°24' E 018°43'0 0.0
2014-Oct-27 13:34N 54°24' E 018°43'0 0.0
2014-Oct-27 12:31N 54°24' E 018°43'0 0.0
2014-Oct-27 11:34N 54°24' E 018°43'0 0.0
2014-Oct-27 10:34N 54°24' E 018°43'0 0.0
2014-Oct-27 09:31N 54°24' E 018°43'0 0.0
2014-Oct-27 08:34N 54°24' E 018°43'0 0.0
2014-Oct-27 07:31N 54°24' E 018°43'0 0.0
2014-Oct-27 06:28N 54°24' E 018°43'0 0.0
2014-Oct-27 05:31N 54°24' E 018°43'0 0.0
2014-Oct-27 04:31N 54°24' E 018°43'0 0.0
2014-Oct-27 03:31N 54°24' E 018°43'0 0.0
2014-Oct-27 02:34N 54°24' E 018°43'0 0.0
2014-Oct-27 01:31N 54°24' E 018°43'0 0.0
2014-Oct-27 00:31N 54°24' E 018°43'0 0.0
2014-Oct-26 23:31N 54°24' E 018°43'0 0.0
2014-Oct-26 22:31N 54°24' E 018°43'0 0.0
2014-Oct-26 21:31N 54°24' E 018°43'0 0.0
2014-Oct-26 20:34N 54°24' E 018°43'0 0.0
2014-Oct-26 19:31N 54°24' E 018°43'0 0.0
2014-Oct-26 18:31N 54°24' E 018°43'0 0.0
2014-Oct-26 17:31N 54°24' E 018°43'0 0.0
2014-Oct-26 16:31N 54°24' E 018°43'0 0.0
2014-Oct-26 15:33N 54°24' E 018°43'0 0.0
2014-Oct-26 14:33N 54°24' E 018°43'0 0.0
2014-Oct-26 13:33N 54°24' E 018°43'0 0.0
2014-Oct-26 12:33N 54°24' E 018°43'0 0.0
2014-Oct-26 11:33N 54°24' E 018°43'1 1.3
2014-Oct-26 10:33N 54°24' E 018°45'7 7.3
2014-Oct-26 09:33N 54°28' E 018°56'10 9.8
2014-Oct-26 08:33N 54°36' E 019°04'1010.1
2014-Oct-26 07:33N 54°46' E 019°05'1211.9
2014-Oct-26 06:33N 54°58' E 019°10'1211.7
2014-Oct-26 05:33N 55°10' E 019°13'1712.1
2014-Oct-26 04:11N 55°26' E 019°20'812.3
2014-Oct-26 03:33N 55°34' E 019°23'1212.2
2014-Oct-26 02:33N 55°45' E 019°27'1212.3
2014-Oct-26 01:33N 55°57' E 019°32'1312.3
2014-Oct-26 00:32N 56°10' E 019°37'24210.5
2014-Oct-25 01:33N 59°38' E 023°27'1212.0
2014-Oct-25 00:34N 59°42' E 023°49'1311.9
2014-Oct-24 23:27N 59°45' E 024°14'1111.9
2014-Oct-24 22:33N 59°49' E 024°35'5112.0
2014-Oct-24 18:18N 59°59' E 026°15'912.0
2014-Oct-24 17:33N 60°01' E 026°32'1312.0
2014-Oct-24 16:30N 59°60' E 026°57'  
2014-Oct-21 20:21N 60°01' E 027°15'1111.0
2014-Oct-21 19:23N 59°58' E 026°55'1011.5
2014-Oct-21 18:33N 59°59' E 026°35'1211.6
2014-Oct-21 17:31N 59°56' E 026°12'3911.5
2014-Oct-21 14:11N 59°47' E 024°57'711.4
2014-Oct-21 13:33N 59°45' E 024°44'1611.4
2014-Oct-21 12:08N 59°41' E 024°12'611.2
2014-Oct-21 11:33N 59°39' E 024°00'1211.5
2014-Oct-21 10:33N 59°36' E 023°39'1211.7
2014-Oct-21 09:33N 59°33' E 023°16'30112.0
2014-Oct-20 08:28N 55°59' E 016°37'1212.7
2014-Oct-20 07:34N 55°53' E 016°19'1512.7
2014-Oct-20 06:24N 55°45' E 015°57'1612.7
2014-Oct-20 05:11N 55°37' E 015°34'812.7
2014-Oct-20 04:32N 55°32' E 015°22'1212.7
2014-Oct-20 03:34N 55°25' E 015°04'1111.5
2014-Oct-20 02:34N 55°18' E 014°49'1212.0
2014-Oct-20 01:33N 55°12' E 014°31'1313.0
2014-Oct-20 00:33N 55°04' E 014°13'1313.0
2014-Oct-19 23:33N 54°58' E 013°53'1313.2
2014-Oct-19 22:33N 54°54' E 013°31'2712.9
2014-Oct-19 20:30N 54°45' E 012°48'3233.8
2014-Oct-19 19:32N 54°25' E 012°03'7 6.1
2014-Oct-19 18:26N 54°28' E 012°13'1011.6
2014-Oct-19 17:33N 54°25' E 011°57'4112.7
2014-Oct-19 14:17N 54°42' E 010°52'  

Dump ship's entire track history